createdAt,value
2017-08-08T00:00:16.313Z,1003.63
2017-08-08T00:01:16.291Z,1003.62
2017-08-08T00:02:16.270Z,1003.6
2017-08-08T00:03:16.248Z,1003.6
2017-08-08T00:04:16.242Z,1003.65
2017-08-08T00:05:16.205Z,1003.59
2017-08-08T00:06:16.183Z,1003.61
2017-08-08T00:07:16.163Z,1003.61
2017-08-08T00:08:16.142Z,1003.6
2017-08-08T00:09:16.120Z,1003.59
2017-08-08T00:10:16.098Z,1003.63
2017-08-08T00:11:16.076Z,1003.59
2017-08-08T00:12:16.055Z,1003.61
2017-08-08T00:13:16.035Z,1003.58
2017-08-08T00:14:16.013Z,1003.61
2017-08-08T00:15:15.990Z,1003.58
2017-08-08T00:16:15.969Z,1003.56
2017-08-08T00:17:15.948Z,1003.53
2017-08-08T00:18:15.928Z,1003.51
2017-08-08T00:19:15.906Z,1003.5
2017-08-08T00:20:15.884Z,1003.49
2017-08-08T00:21:15.863Z,1003.48
2017-08-08T00:22:15.841Z,1003.45
2017-08-08T00:23:15.820Z,1003.47
2017-08-08T00:24:15.808Z,1003.43
2017-08-08T00:25:15.777Z,1003.43
2017-08-08T00:26:15.756Z,1003.38
2017-08-08T00:27:15.733Z,1003.41
2017-08-08T00:28:15.714Z,1003.42
2017-08-08T00:29:15.690Z,1003.39
2017-08-08T00:30:15.669Z,1003.38
2017-08-08T00:31:15.652Z,1003.37
2017-08-08T00:32:15.627Z,1003.35
2017-08-08T00:33:15.606Z,1003.31
2017-08-08T00:34:15.584Z,1003.3
2017-08-08T00:35:15.564Z,1003.29
2017-08-08T00:36:15.542Z,1003.28
2017-08-08T00:37:15.520Z,1003.26
2017-08-08T00:38:15.501Z,1003.19
2017-08-08T00:39:15.478Z,1003.21
2017-08-08T00:40:15.458Z,1003.17
2017-08-08T00:41:15.434Z,1003.17
2017-08-08T00:42:15.413Z,1003.15
2017-08-08T00:43:15.393Z,1003.14
2017-08-08T00:44:15.371Z,1003.1
2017-08-08T00:45:15.350Z,1003.09
2017-08-08T00:46:15.329Z,1003.05
2017-08-08T00:47:15.308Z,1002.99
2017-08-08T00:48:15.284Z,1003
2017-08-08T00:49:15.263Z,1002.97
2017-08-08T00:50:15.241Z,1002.91
2017-08-08T00:51:15.222Z,1002.93
2017-08-08T00:52:15.199Z,1002.9
2017-08-08T00:53:15.179Z,1002.82
2017-08-08T00:54:15.157Z,1002.81
2017-08-08T00:55:15.135Z,1002.81
2017-08-08T00:56:15.113Z,1002.78
2017-08-08T00:57:15.093Z,1002.72
2017-08-08T00:58:15.071Z,1002.73
2017-08-08T00:59:15.050Z,1002.67
2017-08-08T01:00:15.028Z,1002.65
2017-08-08T01:01:15.006Z,1002.58
2017-08-08T01:02:14.985Z,1002.59
2017-08-08T01:03:14.963Z,1002.56
2017-08-08T01:04:14.948Z,1002.57
2017-08-08T01:05:14.920Z,1002.55
2017-08-08T01:06:14.898Z,1002.52
2017-08-08T01:07:14.878Z,1002.51
2017-08-08T01:08:14.857Z,1002.52
2017-08-08T01:09:14.839Z,1002.55
2017-08-08T01:10:14.814Z,1002.49
2017-08-08T01:11:14.792Z,1002.48
2017-08-08T01:12:14.770Z,1002.46
2017-08-08T01:13:14.750Z,1002.49
2017-08-08T01:14:14.726Z,1002.49
2017-08-08T01:15:14.706Z,1002.48
2017-08-08T01:16:14.684Z,1002.51
2017-08-08T01:17:14.662Z,1002.5
2017-08-08T01:18:14.640Z,1002.5
2017-08-08T01:19:14.622Z,1002.51
2017-08-08T01:20:14.598Z,1002.52
2017-08-08T01:21:14.577Z,1002.5
2017-08-08T01:22:14.555Z,1002.48
2017-08-08T01:23:14.531Z,1002.48
2017-08-08T01:24:14.512Z,1002.45
2017-08-08T01:25:14.487Z,1002.44
2017-08-08T01:26:14.467Z,1002.45
2017-08-08T01:27:14.444Z,1002.46
2017-08-08T01:28:14.422Z,1002.45
2017-08-08T01:29:14.402Z,1002.44
2017-08-08T01:30:14.379Z,1002.44
2017-08-08T01:31:14.358Z,1002.42
2017-08-08T01:32:14.336Z,1002.41
2017-08-08T01:33:14.314Z,1002.42
2017-08-08T01:34:14.292Z,1002.4
2017-08-08T01:35:14.273Z,1002.43
2017-08-08T01:36:14.248Z,1002.38
2017-08-08T01:37:14.226Z,1002.37
2017-08-08T01:38:14.204Z,1002.37
2017-08-08T01:39:14.181Z,1002.39
2017-08-08T01:40:14.159Z,1002.38
2017-08-08T01:41:14.138Z,1002.38
2017-08-08T01:42:14.116Z,1002.37
2017-08-08T01:43:14.093Z,1002.32
2017-08-08T01:44:14.071Z,1002.36
2017-08-08T01:45:14.051Z,1002.35
2017-08-08T01:46:14.028Z,1002.32
2017-08-08T01:47:14.006Z,1002.3
2017-08-08T01:48:13.984Z,1002.31
2017-08-08T01:49:13.961Z,1002.23
2017-08-08T01:50:13.939Z,1002.19
2017-08-08T01:51:13.917Z,1002.18
2017-08-08T01:52:13.895Z,1002.21
2017-08-08T01:53:13.878Z,1002.21
2017-08-08T01:54:13.849Z,1002.19
2017-08-08T01:55:13.827Z,1002.16
2017-08-08T01:56:13.806Z,1002.13
2017-08-08T01:57:13.784Z,1002.1
2017-08-08T01:58:13.760Z,1002.11
2017-08-08T01:59:13.738Z,1002.11
2017-08-08T02:00:13.717Z,1002.11
2017-08-08T02:01:13.694Z,1002.07
2017-08-08T02:02:13.673Z,1002.1
2017-08-08T02:03:13.650Z,1002.09
2017-08-08T02:04:13.627Z,1002.08
2017-08-08T02:05:13.603Z,1002.02
2017-08-08T02:06:13.582Z,1002.05
2017-08-08T02:07:13.559Z,1001.98
2017-08-08T02:08:13.537Z,1002.01
2017-08-08T02:09:13.514Z,1002.01
2017-08-08T02:10:13.492Z,1002.01
2017-08-08T02:11:13.470Z,1001.98
2017-08-08T02:12:13.446Z,1001.98
2017-08-08T02:13:13.426Z,1001.95
2017-08-08T02:14:13.402Z,1001.93
2017-08-08T02:15:13.379Z,1001.92
2017-08-08T02:16:13.356Z,1001.94
2017-08-08T02:17:13.333Z,1001.9
2017-08-08T02:18:13.312Z,1001.89
2017-08-08T02:19:13.290Z,1001.88
2017-08-08T02:20:13.267Z,1001.88
2017-08-08T02:21:13.245Z,1001.86
2017-08-08T02:22:13.222Z,1001.86
2017-08-08T02:23:13.200Z,1001.85
2017-08-08T02:24:13.176Z,1001.89
2017-08-08T02:25:13.155Z,1001.86
2017-08-08T02:26:13.132Z,1001.88
2017-08-08T02:27:13.110Z,1001.86
2017-08-08T02:28:13.087Z,1001.85
2017-08-08T02:29:13.065Z,1001.85
2017-08-08T02:30:13.042Z,1001.85
2017-08-08T02:31:13.019Z,1001.88
2017-08-08T02:32:12.997Z,1001.82
2017-08-08T02:33:12.974Z,1001.83
2017-08-08T02:34:12.956Z,1001.82
2017-08-08T02:35:12.931Z,1001.82
2017-08-08T02:36:12.908Z,1001.79
2017-08-08T02:37:12.886Z,1001.8
2017-08-08T02:38:12.862Z,1001.82
2017-08-08T02:39:12.840Z,1001.77
2017-08-08T02:40:12.817Z,1001.78
2017-08-08T02:41:12.796Z,1001.74
2017-08-08T02:42:12.773Z,1001.74
2017-08-08T02:43:12.751Z,1001.74
2017-08-08T02:44:12.729Z,1001.77
2017-08-08T02:45:12.705Z,1001.78
2017-08-08T02:46:12.684Z,1001.81
2017-08-08T02:47:12.662Z,1001.77
2017-08-08T02:48:12.640Z,1001.68
2017-08-08T02:49:12.620Z,1001.69
2017-08-08T02:50:12.594Z,1001.63
2017-08-08T02:51:12.572Z,1001.61
2017-08-08T02:52:12.549Z,1001.6
2017-08-08T02:53:12.527Z,1001.55
2017-08-08T02:54:12.503Z,1001.55
2017-08-08T02:55:12.481Z,1001.55
2017-08-08T02:56:12.458Z,1001.53
2017-08-08T02:57:12.435Z,1001.51
2017-08-08T02:58:12.414Z,1001.47
2017-08-08T02:59:12.392Z,1001.5
2017-08-08T03:00:12.367Z,1001.44
2017-08-08T03:01:12.347Z,1001.42
2017-08-08T03:02:12.325Z,1001.43
2017-08-08T03:03:12.301Z,1001.37
2017-08-08T03:04:12.276Z,1001.34
2017-08-08T03:05:12.255Z,1001.3
2017-08-08T03:06:12.233Z,1001.32
2017-08-08T03:07:12.214Z,1001.27
2017-08-08T03:08:12.188Z,1001.27
2017-08-08T03:09:12.165Z,1001.3
2017-08-08T03:10:12.143Z,1001.26
2017-08-08T03:11:12.119Z,1001.26
2017-08-08T03:12:12.097Z,1001.19
2017-08-08T03:13:12.075Z,1001.18
2017-08-08T03:14:12.051Z,1001.12
2017-08-08T03:15:12.030Z,1001.1
2017-08-08T03:16:12.007Z,1001.03
2017-08-08T03:17:11.984Z,1001
2017-08-08T03:18:11.961Z,1001.01
2017-08-08T03:19:11.938Z,1001.01
2017-08-08T03:20:11.916Z,1001
2017-08-08T03:21:11.894Z,1001
2017-08-08T03:22:11.870Z,1000.95
2017-08-08T03:23:11.849Z,1000.9
2017-08-08T03:24:11.825Z,1000.88
2017-08-08T03:25:11.803Z,1000.86
2017-08-08T03:26:11.781Z,1000.8
2017-08-08T03:27:11.758Z,1000.78
2017-08-08T03:28:11.735Z,1000.78
2017-08-08T03:29:11.713Z,1000.77
2017-08-08T03:30:11.691Z,1000.77
2017-08-08T03:31:11.666Z,1000.83
2017-08-08T03:32:11.646Z,1000.81
2017-08-08T03:33:11.622Z,1000.84
2017-08-08T03:34:11.599Z,1000.87
2017-08-08T03:35:11.578Z,1000.87
2017-08-08T03:36:11.554Z,1000.85
2017-08-08T03:37:11.531Z,1000.85
2017-08-08T03:38:11.509Z,1000.78
2017-08-08T03:39:11.488Z,1000.66
2017-08-08T03:40:11.465Z,1000.65
2017-08-08T03:41:11.441Z,1000.52
2017-08-08T03:42:11.419Z,1000.46
2017-08-08T03:43:11.397Z,1000.45
2017-08-08T03:44:11.374Z,1000.41
2017-08-08T03:45:11.352Z,1000.35
2017-08-08T03:46:11.330Z,1000.41
2017-08-08T03:47:11.305Z,1000.34
2017-08-08T03:48:11.285Z,1000.35
2017-08-08T03:49:11.262Z,1000.36
2017-08-08T03:50:11.239Z,1000.36
2017-08-08T03:51:11.216Z,1000.35
2017-08-08T03:52:11.193Z,1000.39
2017-08-08T03:53:11.172Z,1000.42
2017-08-08T03:54:11.149Z,1000.43
2017-08-08T03:55:11.177Z,1000.45
2017-08-08T03:56:11.105Z,1000.46
2017-08-08T03:57:11.081Z,1000.49
2017-08-08T03:58:11.058Z,1000.51
2017-08-08T03:59:11.039Z,1000.53
2017-08-08T04:00:11.014Z,1000.53
2017-08-08T04:01:10.992Z,1000.53
2017-08-08T04:02:10.969Z,1000.55
2017-08-08T04:03:10.945Z,1000.52
2017-08-08T04:04:10.923Z,1000.55
2017-08-08T04:05:10.902Z,1000.52
2017-08-08T04:06:10.878Z,1000.52
2017-08-08T04:07:10.856Z,1000.52
2017-08-08T04:08:10.834Z,1000.52
2017-08-08T04:09:10.809Z,1000.54
2017-08-08T04:10:10.786Z,1000.56
2017-08-08T04:11:10.766Z,1000.59
2017-08-08T04:12:10.742Z,1000.59
2017-08-08T04:13:10.718Z,1000.64
2017-08-08T04:14:10.698Z,1000.58
2017-08-08T04:15:10.675Z,1000.64
2017-08-08T04:16:10.653Z,1000.68
2017-08-08T04:17:10.631Z,1000.68
2017-08-08T04:18:10.609Z,1000.7
2017-08-08T04:19:10.587Z,1000.75
2017-08-08T04:20:10.563Z,1000.81
2017-08-08T04:21:10.540Z,1000.84
2017-08-08T04:22:10.521Z,1000.83
2017-08-08T04:23:10.498Z,1000.73
2017-08-08T04:24:10.472Z,1000.72
2017-08-08T04:25:10.452Z,1000.68
2017-08-08T04:26:10.434Z,1000.62
2017-08-08T04:27:10.406Z,1000.54
2017-08-08T04:28:10.385Z,1000.5
2017-08-08T04:29:10.362Z,1000.46
2017-08-08T04:30:10.340Z,1000.42
2017-08-08T04:31:10.317Z,1000.42
2017-08-08T04:32:10.295Z,1000.41
2017-08-08T04:33:10.324Z,1000.39
2017-08-08T04:34:10.250Z,1000.42
2017-08-08T04:35:10.227Z,1000.4
2017-08-08T04:36:10.206Z,1000.39
2017-08-08T04:37:10.183Z,1000.34
2017-08-08T04:38:10.160Z,1000.32
2017-08-08T04:39:10.138Z,1000.28
2017-08-08T04:40:10.116Z,1000.26
2017-08-08T04:41:10.095Z,1000.2
2017-08-08T04:42:10.072Z,1000.16
2017-08-08T04:43:10.050Z,1000.18
2017-08-08T04:44:10.028Z,1000.14
2017-08-08T04:45:10.007Z,1000.13
2017-08-08T04:46:09.983Z,1000.1
2017-08-08T04:47:09.962Z,1000.11
2017-08-08T04:48:09.941Z,1000.07
2017-08-08T04:49:09.917Z,1000.07
2017-08-08T04:50:09.895Z,1000.09
2017-08-08T04:51:09.875Z,1000.11
2017-08-08T04:52:09.852Z,1000.11
2017-08-08T04:53:09.829Z,1000.12
2017-08-08T04:54:09.808Z,1000.13
2017-08-08T04:55:09.786Z,1000.09
2017-08-08T04:56:09.766Z,1000.06
2017-08-08T04:57:09.748Z,1000.05
2017-08-08T04:58:09.722Z,1000.03
2017-08-08T04:59:09.699Z,1000.02
2017-08-08T05:00:09.676Z,1000.05
2017-08-08T05:01:09.656Z,1000.08
2017-08-08T05:02:09.633Z,1000.03
2017-08-08T05:03:09.614Z,1000.05
2017-08-08T05:04:09.589Z,1000.08
2017-08-08T05:05:09.568Z,1000.02
2017-08-08T05:06:09.547Z,1000.02
2017-08-08T05:07:09.526Z,999.97
2017-08-08T05:08:09.504Z,1000
2017-08-08T05:09:09.482Z,999.97
2017-08-08T05:10:09.459Z,999.93
2017-08-08T05:11:09.438Z,999.94
2017-08-08T05:12:09.419Z,999.92
2017-08-08T05:13:09.397Z,999.92
2017-08-08T05:14:09.375Z,999.92
2017-08-08T05:15:09.353Z,999.9
2017-08-08T05:16:09.331Z,999.91
2017-08-08T05:17:09.310Z,999.89
2017-08-08T05:18:09.289Z,999.89
2017-08-08T05:19:09.268Z,999.91
2017-08-08T05:20:09.246Z,999.96
2017-08-08T05:21:09.225Z,999.96
2017-08-08T05:22:09.202Z,999.97
2017-08-08T05:23:09.181Z,999.99
2017-08-08T05:24:09.160Z,1000.01
2017-08-08T05:25:09.139Z,1000
2017-08-08T05:26:09.118Z,1000.05
2017-08-08T05:27:09.097Z,1000.04
2017-08-08T05:28:09.077Z,1000.05
2017-08-08T05:29:09.055Z,1000.09
2017-08-08T05:30:09.033Z,1000.1
2017-08-08T05:31:09.011Z,1000.12
2017-08-08T05:32:08.991Z,1000.11
2017-08-08T05:33:08.969Z,1000.06
2017-08-08T05:34:08.948Z,1000.1
2017-08-08T05:35:08.927Z,1000.08
2017-08-08T05:36:08.907Z,1000.05
2017-08-08T05:37:08.885Z,1000.05
2017-08-08T05:38:08.864Z,1000.04
2017-08-08T05:39:08.843Z,1000.01
2017-08-08T05:40:08.822Z,1000
2017-08-08T05:41:08.801Z,1000
2017-08-08T05:42:08.781Z,999.97
2017-08-08T05:43:08.759Z,999.95
2017-08-08T05:44:08.737Z,999.94
2017-08-08T05:45:08.717Z,999.94
2017-08-08T05:46:08.696Z,999.94
2017-08-08T05:47:08.676Z,999.93
2017-08-08T05:48:08.656Z,999.93
2017-08-08T05:49:08.634Z,999.93
2017-08-08T05:50:08.614Z,999.94
2017-08-08T05:51:08.595Z,999.87
2017-08-08T05:52:08.573Z,999.86
2017-08-08T05:53:08.553Z,999.82
2017-08-08T05:54:08.534Z,999.81
2017-08-08T05:55:08.512Z,999.77
2017-08-08T05:56:08.493Z,999.74
2017-08-08T05:57:08.473Z,999.72
2017-08-08T05:58:08.453Z,999.7
2017-08-08T05:59:08.431Z,999.67
2017-08-08T06:00:08.412Z,999.65
2017-08-08T06:01:08.391Z,999.64
2017-08-08T06:02:08.371Z,999.63
2017-08-08T06:03:08.350Z,999.63
2017-08-08T06:04:08.330Z,999.6
2017-08-08T06:05:08.310Z,999.56
2017-08-08T06:06:08.292Z,999.53
2017-08-08T06:07:08.270Z,999.52
2017-08-08T06:08:08.252Z,999.43
2017-08-08T06:09:08.233Z,999.5
2017-08-08T06:10:08.212Z,999.48
2017-08-08T06:11:08.196Z,999.49
2017-08-08T06:12:08.176Z,999.49
2017-08-08T06:13:08.155Z,999.46
2017-08-08T06:14:08.137Z,999.43
2017-08-08T06:15:08.127Z,999.41
2017-08-08T06:16:08.101Z,999.38
2017-08-08T06:17:08.081Z,999.34
2017-08-08T06:18:08.064Z,999.34
2017-08-08T06:19:08.047Z,999.3
2017-08-08T06:20:08.028Z,999.32
2017-08-08T06:21:08.011Z,999.32
2017-08-08T06:22:07.992Z,999.31
2017-08-08T06:23:07.976Z,999.35
2017-08-08T06:24:07.956Z,999.33
2017-08-08T06:25:07.940Z,999.38
2017-08-08T06:26:07.921Z,999.39
2017-08-08T06:27:07.904Z,999.45
2017-08-08T06:28:07.886Z,999.45
2017-08-08T06:29:07.869Z,999.43
2017-08-08T06:30:07.852Z,999.43
2017-08-08T06:31:07.835Z,999.36
2017-08-08T06:32:07.816Z,999.36
2017-08-08T06:33:07.800Z,999.39
2017-08-08T06:34:07.782Z,999.34
2017-08-08T06:35:07.818Z,999.35
2017-08-08T06:36:07.809Z,999.4
2017-08-08T06:37:07.730Z,999.4
2017-08-08T06:38:07.712Z,999.42
2017-08-08T06:39:07.782Z,999.42
2017-08-08T06:40:07.781Z,999.42
2017-08-08T06:41:07.741Z,999.43
2017-08-08T06:42:07.855Z,999.42
2017-08-08T06:43:07.636Z,999.45
2017-08-08T06:44:07.607Z,999.43
2017-08-08T06:45:07.590Z,999.41
2017-08-08T06:46:07.573Z,999.37
2017-08-08T06:47:07.555Z,999.38
2017-08-08T06:48:07.539Z,999.41
2017-08-08T06:49:07.524Z,999.37
2017-08-08T06:50:07.508Z,999.38
2017-08-08T06:51:07.511Z,999.42
2017-08-08T06:52:07.474Z,999.42
2017-08-08T06:53:07.509Z,999.41
2017-08-08T06:54:07.441Z,999.44
2017-08-08T06:55:07.424Z,999.43
2017-08-08T06:56:07.410Z,999.42
2017-08-08T06:57:07.393Z,999.38
2017-08-08T06:58:07.622Z,999.36
2017-08-08T06:59:07.765Z,999.34
2017-08-08T07:00:07.438Z,999.37
2017-08-08T07:01:07.392Z,999.34
2017-08-08T07:02:07.341Z,999.32
2017-08-08T07:03:07.299Z,999.29
2017-08-08T07:04:07.284Z,999.32
2017-08-08T07:05:07.267Z,999.34
2017-08-08T07:06:07.257Z,999.31
2017-08-08T07:07:07.237Z,999.3
2017-08-08T07:08:07.221Z,999.28
2017-08-08T07:09:07.205Z,999.31
2017-08-08T07:10:07.239Z,999.28
2017-08-08T07:11:07.174Z,999.32
2017-08-08T07:12:07.158Z,999.33
2017-08-08T07:13:07.144Z,999.33
2017-08-08T07:14:07.128Z,999.32
2017-08-08T07:15:07.113Z,999.33
2017-08-08T07:16:07.096Z,999.31
2017-08-08T07:17:07.082Z,999.32
2017-08-08T07:18:07.068Z,999.32
2017-08-08T07:19:07.052Z,999.34
2017-08-08T07:20:07.036Z,999.32
2017-08-08T07:21:07.022Z,999.33
2017-08-08T07:22:07.007Z,999.36
2017-08-08T07:23:06.992Z,999.34
2017-08-08T07:24:06.977Z,999.31
2017-08-08T07:25:06.963Z,999.34
2017-08-08T07:26:06.949Z,999.3
2017-08-08T07:27:06.934Z,999.29
2017-08-08T07:28:06.920Z,999.33
2017-08-08T07:29:06.906Z,999.3
2017-08-08T07:30:06.890Z,999.26
2017-08-08T07:31:06.877Z,999.29
2017-08-08T07:32:06.862Z,999.25
2017-08-08T07:33:06.848Z,999.21
2017-08-08T07:34:06.834Z,999.21
2017-08-08T07:35:06.819Z,999.21
2017-08-08T07:36:06.806Z,999.22
2017-08-08T07:37:06.790Z,999.2
2017-08-08T07:38:06.777Z,999.18
2017-08-08T07:39:06.761Z,999.16
2017-08-08T07:40:06.747Z,999.16
2017-08-08T07:41:06.733Z,999.14
2017-08-08T07:42:06.718Z,999.11
2017-08-08T07:43:06.706Z,999.1
2017-08-08T07:44:06.692Z,999.09
2017-08-08T07:45:06.676Z,999.09
2017-08-08T07:46:06.662Z,999.08
2017-08-08T07:47:06.649Z,999.1
2017-08-08T07:48:06.633Z,999.07
2017-08-08T07:49:06.618Z,999.07
2017-08-08T07:50:06.604Z,999.02
2017-08-08T07:51:06.592Z,998.97
2017-08-08T07:52:06.577Z,998.95
2017-08-08T07:53:06.563Z,998.89
2017-08-08T07:54:06.549Z,998.86
2017-08-08T07:55:06.535Z,998.85
2017-08-08T07:56:06.519Z,998.84
2017-08-08T07:57:06.506Z,998.76
2017-08-08T07:58:06.494Z,998.71
2017-08-08T07:59:06.478Z,998.7
2017-08-08T08:00:06.465Z,998.68
2017-08-08T08:01:06.450Z,998.67
2017-08-08T08:02:06.437Z,998.66
2017-08-08T08:03:06.423Z,998.63
2017-08-08T08:04:06.439Z,998.6
2017-08-08T08:05:06.395Z,998.56
2017-08-08T08:06:06.385Z,998.54
2017-08-08T08:07:06.367Z,998.51
2017-08-08T08:08:06.404Z,998.47
2017-08-08T08:09:06.340Z,998.47
2017-08-08T08:10:06.326Z,998.45
2017-08-08T08:11:06.313Z,998.44
2017-08-08T08:12:06.693Z,998.45
2017-08-08T08:13:06.286Z,998.38
2017-08-08T08:14:06.369Z,998.38
2017-08-08T08:15:06.449Z,998.36
2017-08-08T08:16:06.244Z,998.35
2017-08-08T08:17:06.229Z,998.31
2017-08-08T08:18:06.215Z,998.28
2017-08-08T08:19:06.202Z,998.27
2017-08-08T08:20:06.193Z,998.26
2017-08-08T08:21:06.229Z,998.27
2017-08-08T08:22:06.158Z,998.3
2017-08-08T08:23:06.245Z,998.29
2017-08-08T08:24:06.238Z,998.28
2017-08-08T08:25:06.417Z,998.33
2017-08-08T08:26:06.106Z,998.29
2017-08-08T08:27:06.091Z,998.32
2017-08-08T08:28:06.078Z,998.27
2017-08-08T08:29:06.063Z,998.3
2017-08-08T08:30:06.048Z,998.27
2017-08-08T08:31:06.033Z,998.28
2017-08-08T08:32:06.020Z,998.29
2017-08-08T08:33:06.006Z,998.22
2017-08-08T08:34:05.992Z,998.22
2017-08-08T08:35:06.035Z,998.23
2017-08-08T08:36:05.965Z,998.24
2017-08-08T08:37:05.951Z,998.24
2017-08-08T08:38:05.938Z,998.2
2017-08-08T08:39:05.923Z,998.22
2017-08-08T08:40:05.915Z,998.24
2017-08-08T08:41:05.895Z,998.26
2017-08-08T08:42:05.882Z,998.26
2017-08-08T08:43:05.866Z,998.29
2017-08-08T08:44:05.853Z,998.26
2017-08-08T08:45:05.840Z,998.3
2017-08-08T08:46:05.825Z,998.34
2017-08-08T08:47:05.812Z,998.34
2017-08-08T08:48:05.797Z,998.35
2017-08-08T08:49:05.784Z,998.34
2017-08-08T08:50:05.821Z,998.32
2017-08-08T08:51:05.757Z,998.29
2017-08-08T08:52:05.742Z,998.28
2017-08-08T08:53:05.729Z,998.27
2017-08-08T08:54:05.716Z,998.27
2017-08-08T08:55:05.702Z,998.22
2017-08-08T08:56:05.688Z,998.24
2017-08-08T08:57:05.676Z,998.25
2017-08-08T08:58:05.661Z,998.25
2017-08-08T08:59:05.647Z,998.25
2017-08-08T09:00:05.634Z,998.25
2017-08-08T09:01:05.622Z,998.27
2017-08-08T09:02:05.608Z,998.24
2017-08-08T09:03:05.595Z,998.24
2017-08-08T09:04:05.581Z,998.23
2017-08-08T09:05:05.569Z,998.27
2017-08-08T09:06:05.554Z,998.23
2017-08-08T09:07:05.541Z,998.17
2017-08-08T09:08:05.527Z,998.24
2017-08-08T09:09:05.513Z,998.21
2017-08-08T09:10:05.501Z,998.23
2017-08-08T09:11:05.487Z,998.21
2017-08-08T09:12:05.472Z,998.18
2017-08-08T09:13:05.461Z,998.17
2017-08-08T09:14:05.446Z,998.16
2017-08-08T09:15:05.434Z,998.16
2017-08-08T09:16:05.520Z,998.17
2017-08-08T09:17:05.408Z,998.15
2017-08-08T09:18:05.394Z,998.13
2017-08-08T09:19:05.381Z,998.09
2017-08-08T09:20:05.366Z,998.1
2017-08-08T09:21:05.354Z,998.06
2017-08-08T09:22:05.340Z,998.07
2017-08-08T09:23:05.327Z,998.05
2017-08-08T09:24:05.312Z,998.08
2017-08-08T09:25:05.301Z,998.07
2017-08-08T09:26:05.286Z,998.08
2017-08-08T09:27:05.273Z,998.07
2017-08-08T09:28:05.258Z,998.06
2017-08-08T09:29:05.246Z,998.04
2017-08-08T09:30:05.232Z,998.05
2017-08-08T09:31:05.218Z,998.05
2017-08-08T09:32:05.204Z,998.03
2017-08-08T09:33:05.192Z,998.04
2017-08-08T09:34:05.177Z,998.05
2017-08-08T09:35:05.166Z,998.08
2017-08-08T09:36:05.150Z,998.09
2017-08-08T09:37:05.138Z,998.08
2017-08-08T09:38:05.123Z,998.08
2017-08-08T09:39:05.110Z,998.06
2017-08-08T09:40:05.098Z,998.05
2017-08-08T09:41:05.083Z,998.08
2017-08-08T09:42:05.070Z,998.07
2017-08-08T09:43:05.057Z,998.06
2017-08-08T09:44:05.044Z,998.01
2017-08-08T09:45:05.029Z,997.99
2017-08-08T09:46:05.016Z,998
2017-08-08T09:47:05.003Z,997.99
2017-08-08T09:48:05.007Z,997.98
2017-08-08T09:49:05.059Z,997.99
2017-08-08T09:50:05.141Z,998
2017-08-08T09:51:05.051Z,997.95
2017-08-08T09:52:04.937Z,997.96
2017-08-08T09:53:04.965Z,997.94
2017-08-08T09:54:04.911Z,997.96
2017-08-08T09:55:04.898Z,997.97
2017-08-08T09:56:04.884Z,997.96
2017-08-08T09:57:04.871Z,997.99
2017-08-08T09:58:04.858Z,997.98
2017-08-08T09:59:04.848Z,998.01
2017-08-08T10:00:04.833Z,998.02
2017-08-08T10:01:04.818Z,998.01
2017-08-08T10:02:04.830Z,998.01
2017-08-08T10:03:04.794Z,997.99
2017-08-08T10:04:04.850Z,997.99
2017-08-08T10:05:04.769Z,998.02
2017-08-08T10:06:04.756Z,998.04
2017-08-08T10:07:04.742Z,998
2017-08-08T10:08:04.729Z,998
2017-08-08T10:09:04.716Z,998.06
2017-08-08T10:10:04.759Z,998.08
2017-08-08T10:11:04.690Z,998.09
2017-08-08T10:12:04.678Z,998.1
2017-08-08T10:13:04.837Z,998.13
2017-08-08T10:14:04.665Z,998.12
2017-08-08T10:15:04.656Z,998.12
2017-08-08T10:16:04.628Z,998.13
2017-08-08T10:17:04.613Z,998.12
2017-08-08T10:18:04.600Z,998.19
2017-08-08T10:19:04.588Z,998.2
2017-08-08T10:20:04.592Z,998.18
2017-08-08T10:21:04.562Z,998.18
2017-08-08T10:22:04.549Z,998.23
2017-08-08T10:23:04.537Z,998.19
2017-08-08T10:24:04.524Z,998.2
2017-08-08T10:25:04.512Z,998.2
2017-08-08T10:26:04.498Z,998.21
2017-08-08T10:27:04.525Z,998.24
2017-08-08T10:28:04.524Z,998.22
2017-08-08T10:29:04.458Z,998.27
2017-08-08T10:30:04.445Z,998.29
2017-08-08T10:31:04.432Z,998.32
2017-08-08T10:32:04.418Z,998.3
2017-08-08T10:33:04.405Z,998.29
2017-08-08T10:34:04.392Z,998.3
2017-08-08T10:35:04.378Z,998.26
2017-08-08T10:36:04.366Z,998.38
2017-08-08T10:37:04.355Z,998.37
2017-08-08T10:38:04.342Z,998.31
2017-08-08T10:39:04.334Z,998.33
2017-08-08T10:40:04.315Z,998.31
2017-08-08T10:41:04.300Z,998.32
2017-08-08T10:42:04.287Z,998.37
2017-08-08T10:43:04.274Z,998.4
2017-08-08T10:44:04.260Z,998.39
2017-08-08T10:45:04.247Z,998.44
2017-08-08T10:46:04.233Z,998.39
2017-08-08T10:47:04.219Z,998.42
2017-08-08T10:48:04.205Z,998.45
2017-08-08T10:49:04.190Z,998.39
2017-08-08T10:50:04.176Z,998.42
2017-08-08T10:51:04.162Z,998.4
2017-08-08T10:52:04.147Z,998.44
2017-08-08T10:53:04.141Z,998.43
2017-08-08T10:54:04.120Z,998.43
2017-08-08T10:55:04.104Z,998.45
2017-08-08T10:56:04.091Z,998.39
2017-08-08T10:57:04.076Z,998.4
2017-08-08T10:58:04.061Z,998.41
2017-08-08T10:59:04.046Z,998.39
2017-08-08T11:00:04.032Z,998.4
2017-08-08T11:01:04.018Z,998.37
2017-08-08T11:02:04.003Z,998.41
2017-08-08T11:03:03.988Z,998.4
2017-08-08T11:04:03.973Z,998.42
2017-08-08T11:05:03.958Z,998.42
2017-08-08T11:06:03.945Z,998.44
2017-08-08T11:07:03.927Z,998.44
2017-08-08T11:08:03.914Z,998.43
2017-08-08T11:09:03.899Z,998.42
2017-08-08T11:10:03.886Z,998.46
2017-08-08T11:11:03.869Z,998.43
2017-08-08T11:12:03.893Z,998.42
2017-08-08T11:13:03.838Z,998.46
2017-08-08T11:14:03.982Z,998.36
2017-08-08T11:15:03.807Z,998.36
2017-08-08T11:16:03.793Z,998.38
2017-08-08T11:17:03.777Z,998.38
2017-08-08T11:18:03.763Z,998.36
2017-08-08T11:19:03.747Z,998.42
2017-08-08T11:20:03.732Z,998.41
2017-08-08T11:21:03.717Z,998.45
2017-08-08T11:22:03.701Z,998.48
2017-08-08T11:23:03.687Z,998.42
2017-08-08T11:24:03.674Z,998.46
2017-08-08T11:25:03.657Z,998.5
2017-08-08T11:26:03.640Z,998.45
2017-08-08T11:27:03.626Z,998.44
2017-08-08T11:28:03.610Z,998.39
2017-08-08T11:29:03.594Z,998.39
2017-08-08T11:30:03.678Z,998.4
2017-08-08T11:31:03.563Z,998.43
2017-08-08T11:32:03.548Z,998.4
2017-08-08T11:33:03.532Z,998.38
2017-08-08T11:34:03.518Z,998.35
2017-08-08T11:35:03.500Z,998.34
2017-08-08T11:36:03.486Z,998.29
2017-08-08T11:37:03.468Z,998.25
2017-08-08T11:38:03.489Z,998.23
2017-08-08T11:39:03.437Z,998.22
2017-08-08T11:40:03.421Z,998.22
2017-08-08T11:41:03.406Z,998.25
2017-08-08T11:42:03.541Z,998.21
2017-08-08T11:43:03.373Z,998.15
2017-08-08T11:44:03.358Z,998.07
2017-08-08T11:45:03.344Z,998.1
2017-08-08T11:46:03.326Z,998.15
2017-08-08T11:47:03.311Z,998.15
2017-08-08T11:48:03.293Z,998.14
2017-08-08T11:49:03.286Z,998.13
2017-08-08T11:50:03.263Z,998.13
2017-08-08T11:51:03.361Z,998.07
2017-08-08T11:52:03.234Z,998.06
2017-08-08T11:53:03.215Z,998.04
2017-08-08T11:54:03.194Z,997.99
2017-08-08T11:55:03.245Z,997.91
2017-08-08T11:56:03.171Z,997.92
2017-08-08T11:57:03.145Z,997.87
2017-08-08T11:58:03.136Z,997.89
2017-08-08T11:59:03.117Z,997.95
2017-08-08T12:00:03.124Z,997.95
2017-08-08T12:01:03.079Z,998.02
2017-08-08T12:02:03.063Z,998.01
2017-08-08T12:03:03.047Z,998.05
2017-08-08T12:04:03.030Z,998
2017-08-08T12:05:03.015Z,998.04
2017-08-08T12:06:02.999Z,998.04
2017-08-08T12:07:02.981Z,998.06
2017-08-08T12:08:02.965Z,998.05
2017-08-08T12:09:02.949Z,998.04
2017-08-08T12:10:02.937Z,997.99
2017-08-08T12:11:02.921Z,998
2017-08-08T12:12:02.900Z,997.97
2017-08-08T12:13:02.882Z,997.99
2017-08-08T12:14:02.867Z,998
2017-08-08T12:15:02.955Z,997.92
2017-08-08T12:16:02.835Z,997.93
2017-08-08T12:17:02.816Z,997.96
2017-08-08T12:18:02.807Z,997.91
2017-08-08T12:19:02.785Z,997.91
2017-08-08T12:20:02.768Z,997.92
2017-08-08T12:21:02.754Z,997.91